sensor_id;sensor_type;location;lat;lon;timestamp;temperature;humidity
5086;DHT22;4715;51.660;7.082;2022-10-16T00:00:14;14.90;99.90
5086;DHT22;4715;51.660;7.082;2022-10-16T00:02:39;15.00;99.90
5086;DHT22;4715;51.660;7.082;2022-10-16T00:05:02;14.90;99.90
5086;DHT22;4715;51.660;7.082;2022-10-16T00:07:25;14.90;99.90
5086;DHT22;4715;51.660;7.082;2022-10-16T00:09:47;14.90;99.90
5086;DHT22;4715;51.660;7.082;2022-10-16T00:12:12;14.90;99.90
5086;DHT22;4715;51.660;7.082;2022-10-16T00:14:34;14.90;99.90
5086;DHT22;4715;51.660;7.082;2022-10-16T00:16:59;14.90;99.90
5086;DHT22;4715;51.660;7.082;2022-10-16T00:19:21;14.80;99.90
5086;DHT22;4715;51.660;7.082;2022-10-16T00:21:44;14.90;99.90
5086;DHT22;4715;51.660;7.082;2022-10-16T00:24:09;14.90;99.90
5086;DHT22;4715;51.660;7.082;2022-10-16T00:26:33;14.90;99.90
5086;DHT22;4715;51.660;7.082;2022-10-16T00:28:57;14.80;99.90
5086;DHT22;4715;51.660;7.082;2022-10-16T00:31:21;14.90;99.90
5086;DHT22;4715;51.660;7.082;2022-10-16T00:33:45;14.80;99.90
5086;DHT22;4715;51.660;7.082;2022-10-16T00:36:09;14.80;99.90
5086;DHT22;4715;51.660;7.082;2022-10-16T00:38:31;14.80;99.90
5086;DHT22;4715;51.660;7.082;2022-10-16T00:40:56;14.80;99.90
5086;DHT22;4715;51.660;7.082;2022-10-16T00:43:36;14.80;99.90
5086;DHT22;4715;51.660;7.082;2022-10-16T00:46:01;14.80;99.90
5086;DHT22;4715;51.660;7.082;2022-10-16T00:48:23;14.80;99.90
5086;DHT22;4715;51.660;7.082;2022-10-16T00:50:47;14.80;99.90
5086;DHT22;4715;51.660;7.082;2022-10-16T00:53:10;14.80;99.90
5086;DHT22;4715;51.660;7.082;2022-10-16T00:55:33;14.80;99.90
5086;DHT22;4715;51.660;7.082;2022-10-16T00:57:59;14.80;99.90
5086;DHT22;4715;51.660;7.082;2022-10-16T01:00:24;14.80;99.90
5086;DHT22;4715;51.660;7.082;2022-10-16T01:02:52;14.80;99.90
5086;DHT22;4715;51.660;7.082;2022-10-16T01:05:15;14.80;99.90
5086;DHT22;4715;51.660;7.082;2022-10-16T01:07:45;14.80;99.90
5086;DHT22;4715;51.660;7.082;2022-10-16T01:10:20;14.80;99.90
5086;DHT22;4715;51.660;7.082;2022-10-16T01:12:48;14.80;99.90
5086;DHT22;4715;51.660;7.082;2022-10-16T01:15:17;14.80;99.90
5086;DHT22;4715;51.660;7.082;2022-10-16T01:17:45;14.80;99.90
5086;DHT22;4715;51.660;7.082;2022-10-16T01:20:11;14.80;99.90
5086;DHT22;4715;51.660;7.082;2022-10-16T01:22:48;14.80;99.90
5086;DHT22;4715;51.660;7.082;2022-10-16T01:25:22;14.80;99.90
5086;DHT22;4715;51.660;7.082;2022-10-16T01:27:48;14.80;99.90
5086;DHT22;4715;51.660;7.082;2022-10-16T01:30:13;14.80;99.90
5086;DHT22;4715;51.660;7.082;2022-10-16T01:32:41;14.80;99.90
5086;DHT22;4715;51.660;7.082;2022-10-16T01:35:05;14.80;99.90
5086;DHT22;4715;51.660;7.082;2022-10-16T01:37:35;14.70;99.90
5086;DHT22;4715;51.660;7.082;2022-10-16T01:40:01;14.70;99.90
5086;DHT22;4715;51.660;7.082;2022-10-16T01:42:34;14.70;99.90
5086;DHT22;4715;51.660;7.082;2022-10-16T01:44:59;14.70;99.90
5086;DHT22;4715;51.660;7.082;2022-10-16T01:47:24;14.70;99.90
5086;DHT22;4715;51.660;7.082;2022-10-16T01:49:47;14.70;99.90
5086;DHT22;4715;51.660;7.082;2022-10-16T01:52:14;14.70;99.90
5086;DHT22;4715;51.660;7.082;2022-10-16T01:54:40;14.70;99.90
5086;DHT22;4715;51.660;7.082;2022-10-16T01:57:05;14.70;99.90
5086;DHT22;4715;51.660;7.082;2022-10-16T01:59:31;14.60;99.90
5086;DHT22;4715;51.660;7.082;2022-10-16T02:02:00;14.60;99.90
5086;DHT22;4715;51.660;7.082;2022-10-16T02:04:26;14.60;99.90
5086;DHT22;4715;51.660;7.082;2022-10-16T02:06:49;14.60;99.90
5086;DHT22;4715;51.660;7.082;2022-10-16T02:09:12;14.60;99.90
5086;DHT22;4715;51.660;7.082;2022-10-16T02:11:36;14.60;99.90
5086;DHT22;4715;51.660;7.082;2022-10-16T02:14:02;14.50;99.90
5086;DHT22;4715;51.660;7.082;2022-10-16T02:16:33;14.50;99.90
5086;DHT22;4715;51.660;7.082;2022-10-16T02:18:59;14.50;99.90
5086;DHT22;4715;51.660;7.082;2022-10-16T02:21:26;14.50;99.90
5086;DHT22;4715;51.660;7.082;2022-10-16T02:23:55;14.50;99.90
5086;DHT22;4715;51.660;7.082;2022-10-16T02:26:27;14.50;99.90
5086;DHT22;4715;51.660;7.082;2022-10-16T02:28:54;14.50;99.90
5086;DHT22;4715;51.660;7.082;2022-10-16T02:31:22;14.50;99.90
5086;DHT22;4715;51.660;7.082;2022-10-16T02:33:46;14.50;99.90
5086;DHT22;4715;51.660;7.082;2022-10-16T02:36:09;14.50;99.90
5086;DHT22;4715;51.660;7.082;2022-10-16T02:38:33;14.50;99.90
5086;DHT22;4715;51.660;7.082;2022-10-16T02:40:56;14.50;99.90
5086;DHT22;4715;51.660;7.082;2022-10-16T02:43:18;14.50;99.90
5086;DHT22;4715;51.660;7.082;2022-10-16T02:45:41;14.50;99.90
5086;DHT22;4715;51.660;7.082;2022-10-16T02:48:03;14.50;99.90
5086;DHT22;4715;51.660;7.082;2022-10-16T02:50:25;14.50;99.90
5086;DHT22;4715;51.660;7.082;2022-10-16T02:52:53;14.50;99.90
5086;DHT22;4715;51.660;7.082;2022-10-16T02:55:15;14.50;99.90
5086;DHT22;4715;51.660;7.082;2022-10-16T02:57:36;14.50;99.90
5086;DHT22;4715;51.660;7.082;2022-10-16T03:00:00;14.50;99.90
5086;DHT22;4715;51.660;7.082;2022-10-16T03:02:23;14.50;99.90
5086;DHT22;4715;51.660;7.082;2022-10-16T03:04:46;14.50;99.90
5086;DHT22;4715;51.660;7.082;2022-10-16T03:07:10;14.50;99.90
5086;DHT22;4715;51.660;7.082;2022-10-16T03:09:34;14.50;99.90
5086;DHT22;4715;51.660;7.082;2022-10-16T03:11:56;14.50;99.90
5086;DHT22;4715;51.660;7.082;2022-10-16T03:14:19;14.40;99.90
5086;DHT22;4715;51.660;7.082;2022-10-16T03:16:41;14.40;99.90
5086;DHT22;4715;51.660;7.082;2022-10-16T03:19:03;14.40;99.90
5086;DHT22;4715;51.660;7.082;2022-10-16T03:21:25;14.40;99.90
5086;DHT22;4715;51.660;7.082;2022-10-16T03:23:47;14.40;99.90
5086;DHT22;4715;51.660;7.082;2022-10-16T03:26:12;14.40;99.90
5086;DHT22;4715;51.660;7.082;2022-10-16T03:28:37;14.50;99.90
5086;DHT22;4715;51.660;7.082;2022-10-16T03:30:59;14.50;99.90
5086;DHT22;4715;51.660;7.082;2022-10-16T03:33:21;14.50;99.90
5086;DHT22;4715;51.660;7.082;2022-10-16T03:35:51;14.50;99.90
5086;DHT22;4715;51.660;7.082;2022-10-16T03:38:14;14.50;99.90
5086;DHT22;4715;51.660;7.082;2022-10-16T03:40:36;14.50;99.90
5086;DHT22;4715;51.660;7.082;2022-10-16T03:43:03;14.50;99.90
5086;DHT22;4715;51.660;7.082;2022-10-16T03:45:28;14.50;99.90
5086;DHT22;4715;51.660;7.082;2022-10-16T03:47:50;14.50;99.90
5086;DHT22;4715;51.660;7.082;2022-10-16T03:50:12;14.50;99.90
5086;DHT22;4715;51.660;7.082;2022-10-16T03:52:35;14.50;99.90
5086;DHT22;4715;51.660;7.082;2022-10-16T03:54:57;14.50;99.90
5086;DHT22;4715;51.660;7.082;2022-10-16T03:57:20;14.50;99.90
5086;DHT22;4715;51.660;7.082;2022-10-16T03:59:43;14.50;99.90
5086;DHT22;4715;51.660;7.082;2022-10-16T04:02:06;14.50;99.90
5086;DHT22;4715;51.660;7.082;2022-10-16T04:04:28;14.50;99.90
5086;DHT22;4715;51.660;7.082;2022-10-16T04:06:51;14.50;99.90
5086;DHT22;4715;51.660;7.082;2022-10-16T04:09:21;14.50;99.90
5086;DHT22;4715;51.660;7.082;2022-10-16T04:11:46;14.50;99.90
5086;DHT22;4715;51.660;7.082;2022-10-16T04:14:08;14.50;99.90
5086;DHT22;4715;51.660;7.082;2022-10-16T04:16:32;14.60;99.90
5086;DHT22;4715;51.660;7.082;2022-10-16T04:18:55;14.60;99.90
5086;DHT22;4715;51.660;7.082;2022-10-16T04:21:17;14.60;99.90
5086;DHT22;4715;51.660;7.082;2022-10-16T04:23:39;14.60;99.90
5086;DHT22;4715;51.660;7.082;2022-10-16T04:26:02;14.70;99.90
5086;DHT22;4715;51.660;7.082;2022-10-16T04:28:24;14.70;99.90
5086;DHT22;4715;51.660;7.082;2022-10-16T04:30:46;14.70;99.90
5086;DHT22;4715;51.660;7.082;2022-10-16T04:33:10;14.70;99.90
5086;DHT22;4715;51.660;7.082;2022-10-16T04:35:33;14.70;99.90
5086;DHT22;4715;51.660;7.082;2022-10-16T04:37:58;14.70;99.90
5086;DHT22;4715;51.660;7.082;2022-10-16T04:40:20;14.70;99.90
5086;DHT22;4715;51.660;7.082;2022-10-16T04:42:42;14.70;99.90
5086;DHT22;4715;51.660;7.082;2022-10-16T04:45:06;14.70;99.90
5086;DHT22;4715;51.660;7.082;2022-10-16T04:47:30;14.70;99.90
5086;DHT22;4715;51.660;7.082;2022-10-16T04:49:53;14.60;99.90
5086;DHT22;4715;51.660;7.082;2022-10-16T04:52:15;14.70;99.90
5086;DHT22;4715;51.660;7.082;2022-10-16T04:54:37;14.60;99.90
5086;DHT22;4715;51.660;7.082;2022-10-16T04:56:59;14.60;99.90
5086;DHT22;4715;51.660;7.082;2022-10-16T04:59:22;14.60;99.90
5086;DHT22;4715;51.660;7.082;2022-10-16T05:01:44;14.60;99.90
5086;DHT22;4715;51.660;7.082;2022-10-16T05:04:06;14.60;99.90
5086;DHT22;4715;51.660;7.082;2022-10-16T05:06:29;14.60;99.90
5086;DHT22;4715;51.660;7.082;2022-10-16T05:08:51;14.60;99.90
5086;DHT22;4715;51.660;7.082;2022-10-16T05:11:13;14.60;99.90
5086;DHT22;4715;51.660;7.082;2022-10-16T05:13:35;14.60;99.90
5086;DHT22;4715;51.660;7.082;2022-10-16T05:15:57;14.60;99.90
5086;DHT22;4715;51.660;7.082;2022-10-16T05:18:18;14.60;99.90
5086;DHT22;4715;51.660;7.082;2022-10-16T05:20:41;14.50;99.90
5086;DHT22;4715;51.660;7.082;2022-10-16T05:23:04;14.50;99.90
5086;DHT22;4715;51.660;7.082;2022-10-16T05:25:26;14.50;99.90
5086;DHT22;4715;51.660;7.082;2022-10-16T05:27:48;14.50;99.90
5086;DHT22;4715;51.660;7.082;2022-10-16T05:30:10;14.50;99.90
5086;DHT22;4715;51.660;7.082;2022-10-16T05:32:32;14.50;99.90
5086;DHT22;4715;51.660;7.082;2022-10-16T05:34:54;14.50;99.90
5086;DHT22;4715;51.660;7.082;2022-10-16T05:37:16;14.50;99.90
5086;DHT22;4715;51.660;7.082;2022-10-16T05:39:40;14.50;99.90
5086;DHT22;4715;51.660;7.082;2022-10-16T05:42:02;14.50;99.90
5086;DHT22;4715;51.660;7.082;2022-10-16T05:44:24;14.50;99.90
5086;DHT22;4715;51.660;7.082;2022-10-16T05:46:46;14.50;99.90
5086;DHT22;4715;51.660;7.082;2022-10-16T05:49:08;14.50;99.90
5086;DHT22;4715;51.660;7.082;2022-10-16T05:51:30;14.50;99.90
5086;DHT22;4715;51.660;7.082;2022-10-16T05:53:53;14.50;99.90
5086;DHT22;4715;51.660;7.082;2022-10-16T05:56:16;14.50;99.90
5086;DHT22;4715;51.660;7.082;2022-10-16T05:58:38;14.50;99.90
5086;DHT22;4715;51.660;7.082;2022-10-16T06:01:03;14.50;99.90
5086;DHT22;4715;51.660;7.082;2022-10-16T06:03:26;14.50;99.90
5086;DHT22;4715;51.660;7.082;2022-10-16T06:05:47;14.50;99.90
5086;DHT22;4715;51.660;7.082;2022-10-16T06:08:09;14.50;99.90
5086;DHT22;4715;51.660;7.082;2022-10-16T06:10:31;14.50;99.90
5086;DHT22;4715;51.660;7.082;2022-10-16T06:12:54;14.50;99.90
5086;DHT22;4715;51.660;7.082;2022-10-16T06:15:16;14.40;99.90
5086;DHT22;4715;51.660;7.082;2022-10-16T06:17:38;14.40;99.90
5086;DHT22;4715;51.660;7.082;2022-10-16T06:20:00;14.40;99.90
5086;DHT22;4715;51.660;7.082;2022-10-16T06:22:24;14.40;99.90
5086;DHT22;4715;51.660;7.082;2022-10-16T06:24:45;14.40;99.90
5086;DHT22;4715;51.660;7.082;2022-10-16T06:27:08;14.40;99.90
5086;DHT22;4715;51.660;7.082;2022-10-16T06:29:31;14.40;99.90
5086;DHT22;4715;51.660;7.082;2022-10-16T06:31:53;14.50;99.90
5086;DHT22;4715;51.660;7.082;2022-10-16T06:34:15;14.50;99.90
5086;DHT22;4715;51.660;7.082;2022-10-16T06:36:38;14.50;99.90
5086;DHT22;4715;51.660;7.082;2022-10-16T06:39:01;14.50;99.90
5086;DHT22;4715;51.660;7.082;2022-10-16T06:41:23;14.50;99.90
5086;DHT22;4715;51.660;7.082;2022-10-16T06:43:45;14.50;99.90
5086;DHT22;4715;51.660;7.082;2022-10-16T06:46:10;14.50;99.90
5086;DHT22;4715;51.660;7.082;2022-10-16T06:48:34;14.50;99.90
5086;DHT22;4715;51.660;7.082;2022-10-16T06:50:57;14.50;99.90
5086;DHT22;4715;51.660;7.082;2022-10-16T06:53:21;14.50;99.90
5086;DHT22;4715;51.660;7.082;2022-10-16T06:55:45;14.50;99.90
5086;DHT22;4715;51.660;7.082;2022-10-16T06:58:07;14.50;99.90
5086;DHT22;4715;51.660;7.082;2022-10-16T07:00:29;14.50;99.90
5086;DHT22;4715;51.660;7.082;2022-10-16T07:02:52;14.50;99.90
5086;DHT22;4715;51.660;7.082;2022-10-16T07:05:14;14.50;99.90
5086;DHT22;4715;51.660;7.082;2022-10-16T07:07:37;14.50;99.90
5086;DHT22;4715;51.660;7.082;2022-10-16T07:09:58;14.60;99.90
5086;DHT22;4715;51.660;7.082;2022-10-16T07:12:20;14.60;99.90
5086;DHT22;4715;51.660;7.082;2022-10-16T07:14:42;14.60;99.90
5086;DHT22;4715;51.660;7.082;2022-10-16T07:17:04;14.60;99.90
5086;DHT22;4715;51.660;7.082;2022-10-16T07:19:27;14.60;99.90
5086;DHT22;4715;51.660;7.082;2022-10-16T07:21:49;14.60;99.90
5086;DHT22;4715;51.660;7.082;2022-10-16T07:24:13;14.60;99.90
5086;DHT22;4715;51.660;7.082;2022-10-16T07:26:36;14.60;99.90
5086;DHT22;4715;51.660;7.082;2022-10-16T07:28:59;14.60;99.90
5086;DHT22;4715;51.660;7.082;2022-10-16T07:31:21;14.60;99.90
5086;DHT22;4715;51.660;7.082;2022-10-16T07:33:45;14.70;99.90
5086;DHT22;4715;51.660;7.082;2022-10-16T07:36:10;14.70;99.90
5086;DHT22;4715;51.660;7.082;2022-10-16T07:38:31;14.80;99.90
5086;DHT22;4715;51.660;7.082;2022-10-16T07:40:57;14.90;99.90
5086;DHT22;4715;51.660;7.082;2022-10-16T07:43:19;14.90;99.90
5086;DHT22;4715;51.660;7.082;2022-10-16T07:45:47;15.00;99.90
5086;DHT22;4715;51.660;7.082;2022-10-16T07:48:10;15.00;99.90
5086;DHT22;4715;51.660;7.082;2022-10-16T07:50:31;15.10;99.90
5086;DHT22;4715;51.660;7.082;2022-10-16T07:52:54;15.10;99.90
5086;DHT22;4715;51.660;7.082;2022-10-16T07:55:16;15.20;99.90
5086;DHT22;4715;51.660;7.082;2022-10-16T07:57:38;15.20;99.90
5086;DHT22;4715;51.660;7.082;2022-10-16T08:00:00;15.20;99.90
5086;DHT22;4715;51.660;7.082;2022-10-16T08:02:22;15.30;99.90
5086;DHT22;4715;51.660;7.082;2022-10-16T08:04:46;15.30;99.90
5086;DHT22;4715;51.660;7.082;2022-10-16T08:07:08;15.30;99.90
5086;DHT22;4715;51.660;7.082;2022-10-16T08:09:31;15.40;99.90
5086;DHT22;4715;51.660;7.082;2022-10-16T08:11:53;15.40;99.90
5086;DHT22;4715;51.660;7.082;2022-10-16T08:14:15;15.40;99.90
5086;DHT22;4715;51.660;7.082;2022-10-16T08:16:37;15.50;99.90
5086;DHT22;4715;51.660;7.082;2022-10-16T08:18:59;15.50;99.90
5086;DHT22;4715;51.660;7.082;2022-10-16T08:21:22;15.60;99.90
5086;DHT22;4715;51.660;7.082;2022-10-16T08:23:44;15.60;99.90
5086;DHT22;4715;51.660;7.082;2022-10-16T08:26:08;15.70;99.90
5086;DHT22;4715;51.660;7.082;2022-10-16T08:28:30;15.70;99.90
5086;DHT22;4715;51.660;7.082;2022-10-16T08:30:52;15.70;99.90
5086;DHT22;4715;51.660;7.082;2022-10-16T08:33:13;15.80;99.90
5086;DHT22;4715;51.660;7.082;2022-10-16T08:35:35;15.80;99.90
5086;DHT22;4715;51.660;7.082;2022-10-16T08:37:57;15.90;99.90
5086;DHT22;4715;51.660;7.082;2022-10-16T08:40:21;15.90;99.90
5086;DHT22;4715;51.660;7.082;2022-10-16T08:43:05;15.90;99.90
5086;DHT22;4715;51.660;7.082;2022-10-16T08:45:36;15.90;99.90
5086;DHT22;4715;51.660;7.082;2022-10-16T08:48:06;16.00;99.90
5086;DHT22;4715;51.660;7.082;2022-10-16T08:50:35;16.10;99.90
5086;DHT22;4715;51.660;7.082;2022-10-16T08:52:58;16.10;99.90
5086;DHT22;4715;51.660;7.082;2022-10-16T08:55:30;16.20;99.90
5086;DHT22;4715;51.660;7.082;2022-10-16T08:57:55;16.20;99.90
5086;DHT22;4715;51.660;7.082;2022-10-16T09:00:17;16.20;99.90
5086;DHT22;4715;51.660;7.082;2022-10-16T09:02:43;16.30;99.90
5086;DHT22;4715;51.660;7.082;2022-10-16T09:05:21;16.30;99.90
5086;DHT22;4715;51.660;7.082;2022-10-16T09:07:53;16.40;99.90
5086;DHT22;4715;51.660;7.082;2022-10-16T09:10:27;16.40;99.90
5086;DHT22;4715;51.660;7.082;2022-10-16T09:13:02;16.50;99.90
5086;DHT22;4715;51.660;7.082;2022-10-16T09:15:34;16.50;99.90
5086;DHT22;4715;51.660;7.082;2022-10-16T09:18:02;16.60;99.90
5086;DHT22;4715;51.660;7.082;2022-10-16T09:20:32;16.70;99.90
5086;DHT22;4715;51.660;7.082;2022-10-16T09:23:10;16.80;99.90
5086;DHT22;4715;51.660;7.082;2022-10-16T09:25:33;16.90;99.90
5086;DHT22;4715;51.660;7.082;2022-10-16T09:27:57;17.00;99.90
5086;DHT22;4715;51.660;7.082;2022-10-16T09:30:21;17.10;99.90
5086;DHT22;4715;51.660;7.082;2022-10-16T09:32:45;17.20;99.90
5086;DHT22;4715;51.660;7.082;2022-10-16T09:35:14;17.30;99.90
5086;DHT22;4715;51.660;7.082;2022-10-16T09:37:36;17.40;99.90
5086;DHT22;4715;51.660;7.082;2022-10-16T09:39:58;17.40;99.90
5086;DHT22;4715;51.660;7.082;2022-10-16T09:42:22;17.40;99.90
5086;DHT22;4715;51.660;7.082;2022-10-16T09:44:49;17.50;99.90
5086;DHT22;4715;51.660;7.082;2022-10-16T09:47:15;17.50;99.90
5086;DHT22;4715;51.660;7.082;2022-10-16T09:49:38;17.50;99.90
5086;DHT22;4715;51.660;7.082;2022-10-16T09:52:10;17.60;99.90
5086;DHT22;4715;51.660;7.082;2022-10-16T09:54:33;17.60;99.90
5086;DHT22;4715;51.660;7.082;2022-10-16T09:57:04;17.70;99.90
5086;DHT22;4715;51.660;7.082;2022-10-16T09:59:26;17.80;99.90
5086;DHT22;4715;51.660;7.082;2022-10-16T10:01:52;17.80;99.90
5086;DHT22;4715;51.660;7.082;2022-10-16T10:04:15;17.90;99.90
5086;DHT22;4715;51.660;7.082;2022-10-16T10:06:41;17.90;99.90
5086;DHT22;4715;51.660;7.082;2022-10-16T10:09:17;17.90;99.90
5086;DHT22;4715;51.660;7.082;2022-10-16T10:11:42;18.00;99.90
5086;DHT22;4715;51.660;7.082;2022-10-16T10:14:05;18.10;99.90
5086;DHT22;4715;51.660;7.082;2022-10-16T10:16:28;18.10;99.90
5086;DHT22;4715;51.660;7.082;2022-10-16T10:18:59;18.20;99.90
5086;DHT22;4715;51.660;7.082;2022-10-16T10:21:21;18.30;99.90
5086;DHT22;4715;51.660;7.082;2022-10-16T10:23:42;18.50;99.90
5086;DHT22;4715;51.660;7.082;2022-10-16T10:26:07;18.60;99.90
5086;DHT22;4715;51.660;7.082;2022-10-16T10:28:57;18.70;99.90
5086;DHT22;4715;51.660;7.082;2022-10-16T10:31:27;18.80;99.90
5086;DHT22;4715;51.660;7.082;2022-10-16T10:33:55;18.80;99.90
5086;DHT22;4715;51.660;7.082;2022-10-16T10:36:28;18.80;99.90
5086;DHT22;4715;51.660;7.082;2022-10-16T10:38:52;18.80;99.90
5086;DHT22;4715;51.660;7.082;2022-10-16T10:41:32;18.70;99.90
5086;DHT22;4715;51.660;7.082;2022-10-16T10:44:05;18.80;99.90
5086;DHT22;4715;51.660;7.082;2022-10-16T10:46:34;18.90;99.90
5086;DHT22;4715;51.660;7.082;2022-10-16T10:52:00;19.00;99.90
5086;DHT22;4715;51.660;7.082;2022-10-16T10:54:28;19.20;99.90
5086;DHT22;4715;51.660;7.082;2022-10-16T10:56:59;19.10;99.90
5086;DHT22;4715;51.660;7.082;2022-10-16T11:02:18;19.30;99.90
5086;DHT22;4715;51.660;7.082;2022-10-16T11:07:36;19.30;99.90
5086;DHT22;4715;51.660;7.082;2022-10-16T11:10:08;19.40;99.90
5086;DHT22;4715;51.660;7.082;2022-10-16T11:12:38;19.40;99.90
5086;DHT22;4715;51.660;7.082;2022-10-16T11:15:10;19.40;99.90
5086;DHT22;4715;51.660;7.082;2022-10-16T11:17:39;19.30;99.90
5086;DHT22;4715;51.660;7.082;2022-10-16T11:20:11;19.30;99.90
5086;DHT22;4715;51.660;7.082;2022-10-16T11:22:39;19.30;99.90
5086;DHT22;4715;51.660;7.082;2022-10-16T11:25:13;19.20;99.90
5086;DHT22;4715;51.660;7.082;2022-10-16T11:27:42;19.20;99.90
5086;DHT22;4715;51.660;7.082;2022-10-16T11:30:17;19.10;99.90
5086;DHT22;4715;51.660;7.082;2022-10-16T11:32:52;19.10;99.90
5086;DHT22;4715;51.660;7.082;2022-10-16T11:35:19;19.10;99.90
5086;DHT22;4715;51.660;7.082;2022-10-16T11:37:49;19.10;99.90
5086;DHT22;4715;51.660;7.082;2022-10-16T11:40:21;19.10;99.90
5086;DHT22;4715;51.660;7.082;2022-10-16T11:42:50;19.20;99.90
5086;DHT22;4715;51.660;7.082;2022-10-16T11:45:24;19.40;99.90
5086;DHT22;4715;51.660;7.082;2022-10-16T11:48:01;19.50;99.90
5086;DHT22;4715;51.660;7.082;2022-10-16T11:50:29;19.40;99.90
5086;DHT22;4715;51.660;7.082;2022-10-16T11:53:02;19.30;99.90
5086;DHT22;4715;51.660;7.082;2022-10-16T11:55:34;19.30;99.90
5086;DHT22;4715;51.660;7.082;2022-10-16T11:58:02;19.20;99.90
5086;DHT22;4715;51.660;7.082;2022-10-16T12:00:35;19.20;99.90
5086;DHT22;4715;51.660;7.082;2022-10-16T12:03:05;19.20;99.90
5086;DHT22;4715;51.660;7.082;2022-10-16T12:05:42;19.10;99.90
5086;DHT22;4715;51.660;7.082;2022-10-16T12:08:14;19.10;99.90
5086;DHT22;4715;51.660;7.082;2022-10-16T12:10:37;19.10;99.90
5086;DHT22;4715;51.660;7.082;2022-10-16T12:13:04;19.20;99.90
5086;DHT22;4715;51.660;7.082;2022-10-16T12:15:29;19.20;99.90
5086;DHT22;4715;51.660;7.082;2022-10-16T12:17:53;19.20;99.90
5086;DHT22;4715;51.660;7.082;2022-10-16T12:20:26;19.20;99.90
5086;DHT22;4715;51.660;7.082;2022-10-16T12:22:59;19.30;99.90
5086;DHT22;4715;51.660;7.082;2022-10-16T12:25:26;19.40;99.90
5086;DHT22;4715;51.660;7.082;2022-10-16T12:28:06;19.50;99.90
5086;DHT22;4715;51.660;7.082;2022-10-16T12:30:33;19.70;99.90
5086;DHT22;4715;51.660;7.082;2022-10-16T12:32:58;19.80;99.90
5086;DHT22;4715;51.660;7.082;2022-10-16T12:35:43;20.00;99.90
5086;DHT22;4715;51.660;7.082;2022-10-16T12:38:18;20.30;99.90
5086;DHT22;4715;51.660;7.082;2022-10-16T12:40:54;20.50;99.90
5086;DHT22;4715;51.660;7.082;2022-10-16T12:43:34;20.70;99.90
5086;DHT22;4715;51.660;7.082;2022-10-16T12:46:01;20.80;99.90
5086;DHT22;4715;51.660;7.082;2022-10-16T12:48:27;20.60;99.90
5086;DHT22;4715;51.660;7.082;2022-10-16T12:50:49;20.70;99.90
5086;DHT22;4715;51.660;7.082;2022-10-16T12:53:19;20.90;99.90
5086;DHT22;4715;51.660;7.082;2022-10-16T12:55:50;21.10;99.90
5086;DHT22;4715;51.660;7.082;2022-10-16T12:58:28;21.20;99.90
5086;DHT22;4715;51.660;7.082;2022-10-16T13:00:57;21.30;99.90
5086;DHT22;4715;51.660;7.082;2022-10-16T13:06:26;21.40;99.90
5086;DHT22;4715;51.660;7.082;2022-10-16T13:09:13;21.50;99.90
5086;DHT22;4715;51.660;7.082;2022-10-16T13:12:03;21.50;99.90
5086;DHT22;4715;51.660;7.082;2022-10-16T13:14:58;21.50;99.90
5086;DHT22;4715;51.660;7.082;2022-10-16T13:17:29;21.50;99.90
5086;DHT22;4715;51.660;7.082;2022-10-16T13:20:00;21.60;99.90
5086;DHT22;4715;51.660;7.082;2022-10-16T13:22:32;21.70;99.90
5086;DHT22;4715;51.660;7.082;2022-10-16T13:25:05;21.80;99.90
5086;DHT22;4715;51.660;7.082;2022-10-16T13:27:48;21.80;99.90
5086;DHT22;4715;51.660;7.082;2022-10-16T13:30:16;21.90;99.90
5086;DHT22;4715;51.660;7.082;2022-10-16T13:32:40;22.00;99.90
5086;DHT22;4715;51.660;7.082;2022-10-16T13:35:28;22.20;99.90
5086;DHT22;4715;51.660;7.082;2022-10-16T13:38:04;22.40;99.90
5086;DHT22;4715;51.660;7.082;2022-10-16T13:40:28;22.50;99.90
5086;DHT22;4715;51.660;7.082;2022-10-16T13:42:53;22.70;99.90
5086;DHT22;4715;51.660;7.082;2022-10-16T13:45:19;22.70;99.90
5086;DHT22;4715;51.660;7.082;2022-10-16T13:47:42;22.80;99.90
5086;DHT22;4715;51.660;7.082;2022-10-16T13:50:06;22.60;99.90
5086;DHT22;4715;51.660;7.082;2022-10-16T13:52:31;22.30;99.90
5086;DHT22;4715;51.660;7.082;2022-10-16T13:54:57;21.90;99.90
5086;DHT22;4715;51.660;7.082;2022-10-16T13:57:22;21.60;99.90
5086;DHT22;4715;51.660;7.082;2022-10-16T13:59:46;21.20;99.90
5086;DHT22;4715;51.660;7.082;2022-10-16T14:02:17;20.90;99.90
5086;DHT22;4715;51.660;7.082;2022-10-16T14:04:41;20.70;99.90
5086;DHT22;4715;51.660;7.082;2022-10-16T14:07:13;20.60;99.90
5086;DHT22;4715;51.660;7.082;2022-10-16T14:09:36;20.60;99.90
5086;DHT22;4715;51.660;7.082;2022-10-16T14:12:02;20.60;99.90
5086;DHT22;4715;51.660;7.082;2022-10-16T14:14:25;20.70;99.90
5086;DHT22;4715;51.660;7.082;2022-10-16T14:16:50;21.20;99.90
5086;DHT22;4715;51.660;7.082;2022-10-16T14:19:35;21.70;99.90
5086;DHT22;4715;51.660;7.082;2022-10-16T14:22:26;22.40;99.90
5086;DHT22;4715;51.660;7.082;2022-10-16T14:24:48;23.10;99.90
5086;DHT22;4715;51.660;7.082;2022-10-16T14:27:26;23.30;99.90
5086;DHT22;4715;51.660;7.082;2022-10-16T14:29:49;23.10;99.90
5086;DHT22;4715;51.660;7.082;2022-10-16T14:32:23;22.70;99.90
5086;DHT22;4715;51.660;7.082;2022-10-16T14:34:53;22.30;99.90
5086;DHT22;4715;51.660;7.082;2022-10-16T14:37:22;21.90;99.90
5086;DHT22;4715;51.660;7.082;2022-10-16T14:39:49;21.60;99.90
5086;DHT22;4715;51.660;7.082;2022-10-16T14:42:14;21.20;99.90
5086;DHT22;4715;51.660;7.082;2022-10-16T14:44:39;20.90;99.90
5086;DHT22;4715;51.660;7.082;2022-10-16T14:47:09;20.70;99.90
5086;DHT22;4715;51.660;7.082;2022-10-16T14:49:35;20.60;99.90
5086;DHT22;4715;51.660;7.082;2022-10-16T14:51:57;20.60;99.90
5086;DHT22;4715;51.660;7.082;2022-10-16T14:54:19;20.60;99.90
5086;DHT22;4715;51.660;7.082;2022-10-16T14:56:45;20.70;99.90
5086;DHT22;4715;51.660;7.082;2022-10-16T14:59:14;20.60;99.90
5086;DHT22;4715;51.660;7.082;2022-10-16T15:01:37;20.50;99.90
5086;DHT22;4715;51.660;7.082;2022-10-16T15:03:59;20.40;99.90
5086;DHT22;4715;51.660;7.082;2022-10-16T15:06:22;20.30;99.90
5086;DHT22;4715;51.660;7.082;2022-10-16T15:08:44;20.10;99.90
5086;DHT22;4715;51.660;7.082;2022-10-16T15:11:07;20.00;99.90
5086;DHT22;4715;51.660;7.082;2022-10-16T15:13:30;20.00;99.90
5086;DHT22;4715;51.660;7.082;2022-10-16T15:15:53;19.90;99.90
5086;DHT22;4715;51.660;7.082;2022-10-16T15:18:15;19.90;99.90
5086;DHT22;4715;51.660;7.082;2022-10-16T15:20:40;19.90;99.90
5086;DHT22;4715;51.660;7.082;2022-10-16T15:23:05;19.80;99.90
5086;DHT22;4715;51.660;7.082;2022-10-16T15:25:32;19.80;99.90
5086;DHT22;4715;51.660;7.082;2022-10-16T15:27:54;19.70;99.90
5086;DHT22;4715;51.660;7.082;2022-10-16T15:30:16;19.70;99.90
5086;DHT22;4715;51.660;7.082;2022-10-16T15:32:38;19.70;99.90
5086;DHT22;4715;51.660;7.082;2022-10-16T15:35:00;19.70;99.90
5086;DHT22;4715;51.660;7.082;2022-10-16T15:37:22;19.70;99.90
5086;DHT22;4715;51.660;7.082;2022-10-16T15:39:45;19.70;99.90
5086;DHT22;4715;51.660;7.082;2022-10-16T15:42:07;19.70;99.90
5086;DHT22;4715;51.660;7.082;2022-10-16T15:44:29;19.70;99.90
5086;DHT22;4715;51.660;7.082;2022-10-16T15:46:54;19.70;99.90
5086;DHT22;4715;51.660;7.082;2022-10-16T15:49:16;19.70;99.90
5086;DHT22;4715;51.660;7.082;2022-10-16T15:51:39;19.60;99.90
5086;DHT22;4715;51.660;7.082;2022-10-16T15:54:01;19.60;99.90
5086;DHT22;4715;51.660;7.082;2022-10-16T15:56:24;19.50;99.90
5086;DHT22;4715;51.660;7.082;2022-10-16T15:58:46;19.40;99.90
5086;DHT22;4715;51.660;7.082;2022-10-16T16:01:09;19.40;99.90
5086;DHT22;4715;51.660;7.082;2022-10-16T16:03:32;19.40;99.90